createdAt,value
2022-10-18T00:01:48.136Z,26.00
2022-10-18T00:04:16.479Z,29.92
2022-10-18T00:06:44.665Z,33.55
2022-10-18T00:09:13.080Z,30.15
2022-10-18T00:11:41.657Z,28.15
2022-10-18T00:14:09.873Z,29.77
2022-10-18T00:16:38.355Z,23.38
2022-10-18T00:19:06.924Z,28.70
2022-10-18T00:21:35.159Z,24.13
2022-10-18T00:24:03.708Z,30.20
2022-10-18T00:26:32.633Z,41.67
2022-10-18T00:29:03.925Z,36.58
2022-10-18T00:31:41.389Z,27.15
2022-10-18T00:34:14.947Z,35.13
2022-10-18T00:36:44.970Z,27.90
2022-10-18T00:39:17.952Z,28.83
2022-10-18T00:41:46.900Z,31.58
2022-10-18T00:44:14.894Z,32.15
2022-10-18T00:46:48.166Z,27.88
2022-10-18T00:49:34.479Z,28.60
2022-10-18T00:52:16.156Z,27.02
2022-10-18T00:54:46.722Z,33.70
2022-10-18T00:57:15.927Z,36.58
2022-10-18T00:59:45.283Z,38.58
2022-10-18T01:02:14.307Z,25.63
2022-10-18T01:04:42.520Z,33.13
2022-10-18T01:07:15.731Z,27.52
2022-10-18T01:10:17.438Z,28.52
2022-10-18T01:13:04.145Z,30.70
2022-10-18T01:15:50.726Z,26.13
2022-10-18T01:18:49.110Z,32.10
2022-10-18T01:21:54.320Z,33.15
2022-10-18T01:24:39.218Z,28.85
2022-10-18T01:27:32.044Z,31.20
2022-10-18T01:30:39.645Z,37.22
2022-10-18T01:33:17.168Z,34.53
2022-10-18T01:35:50.972Z,32.53
2022-10-18T01:38:21.997Z,38.92
2022-10-18T01:40:52.694Z,36.47
2022-10-18T01:43:23.739Z,39.28
2022-10-18T01:45:55.143Z,32.75
2022-10-18T01:48:23.979Z,38.47
2022-10-18T01:50:53.609Z,10.80
2022-10-18T01:53:28.435Z,9.35
2022-10-18T01:56:09.927Z,8.85
2022-10-18T01:58:49.107Z,8.70
2022-10-18T02:02:02.087Z,10.55
2022-10-18T02:07:43.062Z,11.13
2022-10-18T02:12:47.060Z,7.88
2022-10-18T02:15:21.522Z,5.30
2022-10-18T02:17:50.103Z,6.40
2022-10-18T02:20:22.699Z,5.97
2022-10-18T02:22:53.921Z,7.43
2022-10-18T02:25:28.135Z,6.97
2022-10-18T02:27:57.919Z,5.07
2022-10-18T02:30:56.413Z,9.02
2022-10-18T02:33:47.359Z,5.68
2022-10-18T02:36:26.493Z,4.65
2022-10-18T02:39:01.031Z,6.43
2022-10-18T02:41:31.167Z,10.38
2022-10-18T02:43:59.513Z,5.05
2022-10-18T02:49:00.741Z,6.70
2022-10-18T02:51:28.812Z,6.68
2022-10-18T02:53:56.951Z,8.45
2022-10-18T02:56:25.251Z,11.43
2022-10-18T02:58:53.451Z,4.80
2022-10-18T03:01:21.618Z,7.28
2022-10-18T03:03:50.251Z,4.38
2022-10-18T03:06:18.572Z,6.32
2022-10-18T03:08:46.875Z,5.63
2022-10-18T03:11:15.150Z,8.75
2022-10-18T03:13:43.178Z,7.15
2022-10-18T03:16:12.207Z,6.20
2022-10-18T03:18:40.463Z,6.47
2022-10-18T03:21:09.358Z,8.32
2022-10-18T03:23:37.504Z,5.75
2022-10-18T03:26:05.703Z,10.32
2022-10-18T03:28:33.870Z,9.15
2022-10-18T03:31:02.959Z,10.98
2022-10-18T03:33:32.608Z,7.25
2022-10-18T03:36:00.966Z,7.07
2022-10-18T03:38:29.216Z,7.82
2022-10-18T03:40:57.241Z,8.73
2022-10-18T03:43:25.603Z,10.90
2022-10-18T03:45:54.083Z,5.90
2022-10-18T03:48:22.430Z,7.95
2022-10-18T03:50:50.787Z,12.10
2022-10-18T03:53:18.966Z,7.93
2022-10-18T03:55:55.055Z,9.05
2022-10-18T03:58:23.552Z,14.40
2022-10-18T04:00:55.862Z,16.50
2022-10-18T04:03:24.369Z,8.05
2022-10-18T04:05:52.670Z,11.75
2022-10-18T04:08:20.838Z,6.45
2022-10-18T04:10:49.627Z,10.63
2022-10-18T04:13:17.831Z,11.23
2022-10-18T04:15:46.047Z,11.23
2022-10-18T04:18:14.345Z,14.00
2022-10-18T04:20:42.451Z,8.32
2022-10-18T04:23:10.555Z,8.57
2022-10-18T04:25:38.820Z,17.48
2022-10-18T04:28:06.986Z,9.15
2022-10-18T04:30:35.437Z,13.05
2022-10-18T04:33:03.578Z,9.27
2022-10-18T04:35:31.706Z,8.38
2022-10-18T04:37:59.884Z,17.95
2022-10-18T04:40:28.151Z,10.43
2022-10-18T04:42:56.954Z,7.80
2022-10-18T04:45:25.084Z,10.02
2022-10-18T04:47:53.207Z,9.98
2022-10-18T04:50:21.491Z,10.35
2022-10-18T04:55:18.554Z,12.90
2022-10-18T04:57:46.806Z,12.70
2022-10-18T05:00:15.542Z,11.45
2022-10-18T05:02:43.751Z,8.10
2022-10-18T05:05:14.058Z,12.07
2022-10-18T05:07:42.657Z,17.33
2022-10-18T05:10:11.072Z,11.45
2022-10-18T05:12:39.263Z,9.95
2022-10-18T05:15:07.766Z,9.43
2022-10-18T05:17:36.808Z,10.68
2022-10-18T05:20:05.440Z,30.85
2022-10-18T05:22:33.869Z,15.82
2022-10-18T05:25:02.118Z,11.43
2022-10-18T05:27:30.470Z,17.17
2022-10-18T05:30:01.265Z,11.90
2022-10-18T05:32:33.167Z,8.90
2022-10-18T05:35:01.547Z,8.88
2022-10-18T05:37:29.794Z,25.75
2022-10-18T05:39:58.015Z,12.02
2022-10-18T05:42:26.439Z,9.90
2022-10-18T05:44:54.460Z,14.20
2022-10-18T05:47:22.747Z,13.45
2022-10-18T05:49:50.770Z,12.70
2022-10-18T05:52:18.858Z,16.42
2022-10-18T05:54:46.967Z,17.40
2022-10-18T05:57:15.233Z,18.35
2022-10-18T05:59:44.268Z,13.70
2022-10-18T06:02:13.353Z,11.70
2022-10-18T06:04:41.549Z,12.68
2022-10-18T06:07:13.081Z,10.80
2022-10-18T06:09:41.212Z,16.25
2022-10-18T06:12:09.229Z,15.10
2022-10-18T06:14:38.347Z,10.77
2022-10-18T06:17:06.536Z,14.07
2022-10-18T06:19:34.690Z,13.20
2022-10-18T06:22:02.923Z,12.02
2022-10-18T06:24:31.061Z,11.68
2022-10-18T06:26:59.147Z,21.75
2022-10-18T06:29:27.450Z,12.55
2022-10-18T06:31:55.673Z,11.13
2022-10-18T06:34:23.783Z,15.68
2022-10-18T06:36:56.330Z,29.08
2022-10-18T06:39:26.779Z,12.57
2022-10-18T06:41:55.255Z,21.25
2022-10-18T06:44:25.192Z,12.73
2022-10-18T06:46:53.589Z,13.23
2022-10-18T06:49:21.700Z,19.80
2022-10-18T06:51:49.864Z,19.67
2022-10-18T06:54:18.989Z,14.73
2022-10-18T06:56:47.557Z,12.68
2022-10-18T06:59:16.032Z,19.45
2022-10-18T07:01:44.294Z,11.30
2022-10-18T07:04:12.650Z,14.60
2022-10-18T07:06:40.997Z,17.92
2022-10-18T07:09:09.586Z,15.27
2022-10-18T07:11:37.957Z,15.20
2022-10-18T07:14:06.420Z,18.73
2022-10-18T07:16:34.829Z,14.35
2022-10-18T07:19:03.310Z,13.48
2022-10-18T07:21:31.607Z,13.80
2022-10-18T07:23:59.643Z,10.80
2022-10-18T07:26:33.602Z,12.45
2022-10-18T07:29:08.115Z,12.32
2022-10-18T07:31:37.056Z,20.55
2022-10-18T07:34:06.283Z,17.02
2022-10-18T07:36:34.729Z,14.73
2022-10-18T07:39:02.892Z,17.90
2022-10-18T07:41:31.037Z,12.43
2022-10-18T07:43:59.088Z,17.63
2022-10-18T07:46:27.343Z,23.08
2022-10-18T07:48:55.931Z,19.27
2022-10-18T07:51:24.079Z,19.58
2022-10-18T07:53:52.512Z,14.65
2022-10-18T07:56:22.356Z,16.58
2022-10-18T07:58:53.342Z,20.63
2022-10-18T08:01:23.742Z,18.33
2022-10-18T08:03:52.842Z,20.23
2022-10-18T08:06:22.319Z,16.95
2022-10-18T08:08:50.712Z,18.00
2022-10-18T08:11:21.549Z,16.05
2022-10-18T08:13:50.373Z,16.63
2022-10-18T08:16:24.842Z,15.50
2022-10-18T08:18:53.923Z,15.23
2022-10-18T08:21:22.714Z,13.80
2022-10-18T08:23:51.334Z,15.38
2022-10-18T08:26:21.621Z,13.73
2022-10-18T08:28:54.282Z,20.98
2022-10-18T08:31:32.209Z,25.35
2022-10-18T08:34:00.341Z,18.92
2022-10-18T08:36:28.706Z,22.05
2022-10-18T08:38:57.096Z,19.77
2022-10-18T08:41:34.677Z,18.65
2022-10-18T08:44:19.313Z,17.33
2022-10-18T08:46:53.138Z,18.02
2022-10-18T08:49:36.945Z,18.52
2022-10-18T08:52:12.062Z,13.82
2022-10-18T08:55:14.165Z,23.90
2022-10-18T08:57:42.872Z,14.93
2022-10-18T09:00:19.533Z,19.00
2022-10-18T09:03:24.802Z,16.83
2022-10-18T09:06:09.472Z,14.32
2022-10-18T09:08:56.965Z,21.23
2022-10-18T09:11:41.611Z,20.10
2022-10-18T09:14:19.058Z,18.10
2022-10-18T09:17:16.253Z,30.15
2022-10-18T09:22:47.818Z,10.90
2022-10-18T09:25:24.195Z,9.27
2022-10-18T09:28:14.219Z,22.73
2022-10-18T09:31:03.222Z,12.38
2022-10-18T09:33:51.068Z,15.00
2022-10-18T09:36:33.090Z,7.75
2022-10-18T09:41:48.164Z,12.55
2022-10-18T09:44:25.322Z,9.60
2022-10-18T09:47:02.401Z,11.55
2022-10-18T09:49:42.809Z,14.60
2022-10-18T09:52:21.835Z,11.30
2022-10-18T09:54:58.796Z,6.78
2022-10-18T09:57:32.065Z,8.18
2022-10-18T10:00:02.136Z,8.45
2022-10-18T10:02:33.297Z,7.03
2022-10-18T10:05:01.948Z,7.00
2022-10-18T10:07:36.392Z,8.52
2022-10-18T10:10:17.298Z,7.25
2022-10-18T10:12:46.346Z,8.07
2022-10-18T10:15:28.191Z,8.82
2022-10-18T10:18:25.381Z,10.48
2022-10-18T10:20:59.641Z,6.32
2022-10-18T10:23:36.866Z,7.80
2022-10-18T10:26:07.988Z,7.03
2022-10-18T10:28:43.160Z,9.32
2022-10-18T10:31:20.674Z,4.82
2022-10-18T10:33:58.150Z,11.23
2022-10-18T10:36:26.894Z,8.57
2022-10-18T10:39:12.809Z,4.75
2022-10-18T10:41:42.440Z,6.93
2022-10-18T10:44:19.914Z,7.25
2022-10-18T10:46:52.481Z,9.02
2022-10-18T10:49:41.047Z,8.38
2022-10-18T10:52:27.765Z,7.38
2022-10-18T10:55:22.990Z,9.80
2022-10-18T10:57:52.611Z,6.60
2022-10-18T11:00:44.537Z,4.55
2022-10-18T11:03:31.212Z,7.38
2022-10-18T11:05:59.920Z,5.18
2022-10-18T11:08:38.587Z,10.35
2022-10-18T11:11:44.695Z,13.40
2022-10-18T11:14:30.135Z,8.73
2022-10-18T11:17:23.321Z,6.88
2022-10-18T11:20:00.842Z,11.75
2022-10-18T11:22:35.132Z,6.97
2022-10-18T11:25:06.094Z,7.05
2022-10-18T11:27:57.010Z,4.18
2022-10-18T11:31:05.385Z,5.82
2022-10-18T11:34:09.298Z,8.52
2022-10-18T11:37:23.018Z,6.78
2022-10-18T11:39:51.409Z,6.40
2022-10-18T11:42:25.411Z,6.97
2022-10-18T11:45:31.927Z,7.13
2022-10-18T11:48:35.429Z,5.95
2022-10-18T11:51:09.491Z,9.57
2022-10-18T11:53:45.280Z,5.20
2022-10-18T11:56:52.210Z,5.35
2022-10-18T11:59:28.509Z,5.53
2022-10-18T12:01:59.925Z,7.97
2022-10-18T12:04:45.035Z,5.80
2022-10-18T12:07:30.239Z,13.65
2022-10-18T12:10:02.144Z,5.97
2022-10-18T12:12:42.022Z,6.47
2022-10-18T12:15:45.646Z,5.05
2022-10-18T12:18:24.403Z,6.78
2022-10-18T12:20:56.325Z,7.10
2022-10-18T12:23:31.076Z,7.43
2022-10-18T12:26:07.978Z,6.18
2022-10-18T12:28:37.162Z,9.57
2022-10-18T12:31:24.030Z,7.55
2022-10-18T12:33:59.073Z,4.88
2022-10-18T12:37:05.287Z,7.72
2022-10-18T12:40:09.122Z,10.65
2022-10-18T12:42:49.279Z,13.70
2022-10-18T12:45:25.965Z,15.23
2022-10-18T12:47:59.377Z,11.95
2022-10-18T12:50:42.600Z,10.40
2022-10-18T12:53:10.911Z,15.07
2022-10-18T12:58:14.924Z,10.70
2022-10-18T13:00:43.207Z,8.55
2022-10-18T13:03:11.494Z,8.82
2022-10-18T13:05:53.508Z,9.60
2022-10-18T13:08:28.857Z,11.60
2022-10-18T13:11:09.385Z,10.13
2022-10-18T13:13:43.702Z,11.10
2022-10-18T13:16:21.280Z,12.40
2022-10-18T13:19:09.869Z,18.38
2022-10-18T13:21:56.586Z,9.77
2022-10-18T13:24:30.371Z,6.43
2022-10-18T13:27:36.605Z,7.35
2022-10-18T13:30:30.700Z,13.75
2022-10-18T13:33:37.670Z,17.38
2022-10-18T13:36:22.652Z,7.10
2022-10-18T13:38:54.851Z,14.90
2022-10-18T13:41:32.767Z,19.55
2022-10-18T13:44:35.659Z,9.98
2022-10-18T13:47:03.932Z,11.73
2022-10-18T13:49:41.187Z,10.15
2022-10-18T13:52:17.357Z,11.68
2022-10-18T13:54:57.412Z,14.52
2022-10-18T13:57:46.420Z,8.13
2022-10-18T14:00:49.082Z,7.43
2022-10-18T14:03:55.011Z,12.57
2022-10-18T14:06:24.157Z,6.05
2022-10-18T14:09:14.121Z,5.95
2022-10-18T14:12:03.698Z,5.75
2022-10-18T14:14:33.944Z,8.90
2022-10-18T14:17:30.139Z,6.28
2022-10-18T14:20:28.590Z,8.45
2022-10-18T14:23:03.925Z,5.30
2022-10-18T14:25:35.250Z,6.82
2022-10-18T14:28:14.369Z,6.30
2022-10-18T14:31:06.225Z,11.75
2022-10-18T14:33:37.937Z,13.25
2022-10-18T14:36:15.817Z,10.30
2022-10-18T14:39:00.006Z,11.27
2022-10-18T14:41:30.687Z,6.55
2022-10-18T14:44:20.426Z,13.00
2022-10-18T14:46:52.522Z,17.33
2022-10-18T14:49:21.918Z,14.55
2022-10-18T14:51:53.423Z,7.95
2022-10-18T14:54:34.005Z,14.07
2022-10-18T14:57:05.212Z,11.02
2022-10-18T14:59:46.831Z,13.32
2022-10-18T15:02:24.616Z,10.15
2022-10-18T15:05:23.808Z,8.93
2022-10-18T15:07:53.800Z,15.15
2022-10-18T15:10:29.383Z,7.47
2022-10-18T15:13:11.881Z,46.30
2022-10-18T15:15:40.661Z,28.35
2022-10-18T15:18:16.264Z,48.58
2022-10-18T15:20:44.693Z,21.30
2022-10-18T15:23:30.904Z,20.88
2022-10-18T15:26:09.173Z,17.02
2022-10-18T15:28:44.215Z,17.35
2022-10-18T15:31:29.200Z,12.88
2022-10-18T15:34:17.734Z,10.57
2022-10-18T15:36:46.840Z,24.13
2022-10-18T15:39:30.199Z,14.80
2022-10-18T15:42:02.752Z,15.55
2022-10-18T15:44:47.173Z,12.70
2022-10-18T15:47:17.597Z,11.20
2022-10-18T15:49:45.822Z,16.50
2022-10-18T15:52:37.736Z,11.15
2022-10-18T15:55:32.453Z,27.92
2022-10-18T15:58:11.858Z,9.90
2022-10-18T16:00:40.143Z,7.10
2022-10-18T16:03:11.190Z,7.75
2022-10-18T16:05:40.047Z,10.55
2022-10-18T16:08:17.884Z,9.57
2022-10-18T16:10:46.156Z,14.80
2022-10-18T16:13:14.342Z,13.07
2022-10-18T16:15:42.895Z,18.02
2022-10-18T16:18:20.206Z,14.05
2022-10-18T16:20:49.225Z,17.33
2022-10-18T16:23:23.340Z,8.98
2022-10-18T16:25:52.432Z,11.70
2022-10-18T16:28:23.398Z,15.73
2022-10-18T16:31:02.274Z,7.10
2022-10-18T16:33:31.125Z,13.75
2022-10-18T16:35:59.949Z,18.50
2022-10-18T16:38:35.187Z,10.57
2022-10-18T16:41:06.158Z,18.20
2022-10-18T16:43:35.857Z,19.35
2022-10-18T16:46:08.145Z,15.73
2022-10-18T16:48:36.499Z,20.95
2022-10-18T16:51:04.703Z,30.23
2022-10-18T16:53:33.102Z,17.70
2022-10-18T16:56:03.682Z,11.68
2022-10-18T16:58:33.779Z,6.40
2022-10-18T17:01:04.138Z,16.30
2022-10-18T17:03:35.071Z,11.38
2022-10-18T17:06:03.490Z,14.48
2022-10-18T17:08:31.811Z,10.00
2022-10-18T17:11:00.659Z,8.90
2022-10-18T17:13:28.939Z,14.88
2022-10-18T17:15:57.106Z,18.85
2022-10-18T17:18:26.558Z,8.00
2022-10-18T17:20:54.972Z,15.07
2022-10-18T17:23:23.255Z,8.75
2022-10-18T17:26:05.387Z,12.75
2022-10-18T17:28:37.183Z,13.05
2022-10-18T17:31:07.609Z,10.73
2022-10-18T17:33:36.152Z,9.60
2022-10-18T17:36:04.549Z,13.00
2022-10-18T17:38:32.979Z,22.27
2022-10-18T17:41:05.830Z,20.02
2022-10-18T17:43:34.100Z,13.95
2022-10-18T17:46:02.160Z,23.50
2022-10-18T17:48:30.601Z,16.27
2022-10-18T17:50:58.986Z,11.68
2022-10-18T17:53:27.148Z,15.50
2022-10-18T17:56:02.440Z,20.75
2022-10-18T17:58:32.280Z,11.50
2022-10-18T18:01:12.104Z,13.65
2022-10-18T18:03:40.831Z,18.30
2022-10-18T18:06:19.334Z,15.15
2022-10-18T18:08:48.076Z,10.55
2022-10-18T18:11:17.463Z,17.20
2022-10-18T18:13:46.304Z,7.18
2022-10-18T18:16:16.571Z,17.90
2022-10-18T18:18:45.615Z,10.07
2022-10-18T18:21:14.318Z,17.15
2022-10-18T18:23:42.853Z,17.17
2022-10-18T18:26:11.007Z,16.75
2022-10-18T18:28:39.458Z,13.43
2022-10-18T18:31:09.954Z,19.13
2022-10-18T18:33:39.066Z,11.25
2022-10-18T18:36:07.793Z,13.77
2022-10-18T18:38:38.405Z,10.57
2022-10-18T18:41:12.913Z,9.00
2022-10-18T18:43:44.485Z,19.63
2022-10-18T18:46:13.729Z,18.08
2022-10-18T18:48:42.425Z,14.60
2022-10-18T18:51:14.779Z,14.52
2022-10-18T18:53:44.229Z,14.50
2022-10-18T18:56:15.601Z,19.95
2022-10-18T18:58:45.568Z,24.70
2022-10-18T19:01:19.794Z,25.75
2022-10-18T19:03:50.294Z,39.83
2022-10-18T19:06:36.539Z,14.80
2022-10-18T19:09:08.502Z,23.98
2022-10-18T19:11:39.233Z,29.08
2022-10-18T19:14:08.980Z,21.85
2022-10-18T19:16:38.124Z,15.70
2022-10-18T19:19:13.599Z,17.13
2022-10-18T19:21:50.224Z,15.45
2022-10-18T19:24:19.639Z,16.67
2022-10-18T19:26:51.851Z,31.17
2022-10-18T19:29:30.651Z,22.17
2022-10-18T19:32:01.088Z,40.30
2022-10-18T19:34:30.884Z,53.83
2022-10-18T19:36:59.332Z,52.38
2022-10-18T19:39:33.387Z,48.75
2022-10-18T19:42:03.458Z,42.20
2022-10-18T19:44:34.396Z,37.45
2022-10-18T19:47:03.224Z,28.83
2022-10-18T19:49:31.449Z,37.33
2022-10-18T19:52:00.003Z,40.08
2022-10-18T19:54:28.304Z,44.17
2022-10-18T19:56:56.666Z,55.80
2022-10-18T19:59:25.071Z,26.98
2022-10-18T20:01:53.403Z,29.02
2022-10-18T20:04:21.678Z,26.20
2022-10-18T20:06:50.174Z,25.38
2022-10-18T20:09:20.620Z,21.27
2022-10-18T20:11:49.136Z,19.35
2022-10-18T20:14:17.376Z,31.23
2022-10-18T20:16:45.635Z,24.58
2022-10-18T20:19:13.855Z,23.25
2022-10-18T20:21:42.130Z,28.45
2022-10-18T20:24:11.932Z,26.55
2022-10-18T20:26:40.321Z,24.75
2022-10-18T20:29:08.709Z,19.00
2022-10-18T20:31:37.340Z,22.45
2022-10-18T20:34:11.899Z,21.73
2022-10-18T20:36:40.702Z,22.02
2022-10-18T20:39:09.412Z,16.50
2022-10-18T20:41:40.323Z,16.13
2022-10-18T20:44:12.664Z,17.65
2022-10-18T20:46:41.641Z,17.13
2022-10-18T20:49:14.994Z,20.00
2022-10-18T20:51:43.569Z,21.85
2022-10-18T20:54:12.511Z,24.10
2022-10-18T20:56:41.026Z,21.48
2022-10-18T20:59:10.161Z,18.38
2022-10-18T21:01:40.819Z,19.83
2022-10-18T21:04:10.481Z,14.50
2022-10-18T21:06:41.880Z,21.23
2022-10-18T21:09:16.569Z,20.10
2022-10-18T21:11:48.236Z,20.23
2022-10-18T21:14:19.156Z,29.35
2022-10-18T21:16:48.771Z,21.10
2022-10-18T21:19:20.343Z,21.55
2022-10-18T21:21:51.093Z,24.75
2022-10-18T21:24:20.887Z,18.20
2022-10-18T21:26:49.594Z,27.75
2022-10-18T21:29:21.961Z,14.85
2022-10-18T21:31:54.936Z,16.77
2022-10-18T21:34:23.496Z,22.98
2022-10-18T21:36:51.823Z,23.23
2022-10-18T21:41:52.643Z,15.00
2022-10-18T21:44:20.985Z,22.85
2022-10-18T21:46:49.195Z,30.38
2022-10-18T21:49:17.995Z,21.55
2022-10-18T21:51:46.322Z,22.38
2022-10-18T21:54:16.905Z,18.73
2022-10-18T21:56:45.681Z,20.65
2022-10-18T21:59:14.652Z,32.90
2022-10-18T22:01:43.264Z,23.48
2022-10-18T22:04:23.439Z,18.70
2022-10-18T22:06:52.575Z,21.70
2022-10-18T22:09:20.927Z,22.48
2022-10-18T22:11:52.456Z,19.73
2022-10-18T22:14:21.035Z,19.42
2022-10-18T22:16:49.626Z,26.23
2022-10-18T22:19:18.043Z,17.85
2022-10-18T22:21:46.304Z,30.98
2022-10-18T22:24:14.829Z,17.52
2022-10-18T22:26:44.590Z,23.05
2022-10-18T22:29:22.620Z,30.30
2022-10-18T22:31:53.535Z,21.40
2022-10-18T22:34:26.897Z,23.95
2022-10-18T22:36:56.265Z,18.08
2022-10-18T22:39:24.830Z,18.88
2022-10-18T22:41:53.097Z,19.30
2022-10-18T22:44:21.207Z,22.23
2022-10-18T22:46:49.722Z,22.95
2022-10-18T22:49:18.012Z,14.07
2022-10-18T22:51:46.360Z,19.58
2022-10-18T22:54:14.637Z,30.10
2022-10-18T22:56:42.814Z,17.08
2022-10-18T22:59:11.190Z,21.85
2022-10-18T23:01:39.445Z,16.25
2022-10-18T23:04:07.636Z,19.27
2022-10-18T23:06:37.246Z,17.73
2022-10-18T23:09:09.052Z,16.42
2022-10-18T23:11:38.167Z,13.38
2022-10-18T23:14:07.285Z,13.07
2022-10-18T23:16:35.854Z,41.67
2022-10-18T23:19:04.358Z,25.58
2022-10-18T23:21:33.923Z,16.33
2022-10-18T23:24:02.167Z,16.23
2022-10-18T23:26:30.306Z,15.35
2022-10-18T23:28:58.528Z,19.40
2022-10-18T23:31:34.225Z,11.73
2022-10-18T23:34:05.323Z,17.73
2022-10-18T23:36:35.153Z,17.20
2022-10-18T23:39:04.439Z,14.02
2022-10-18T23:41:33.014Z,13.25
2022-10-18T23:44:01.068Z,14.85
2022-10-18T23:46:29.421Z,19.38
2022-10-18T23:48:57.569Z,24.02
2022-10-18T23:51:25.826Z,17.20
2022-10-18T23:53:53.849Z,17.50
2022-10-18T23:56:21.976Z,17.70
2022-10-18T23:58:50.251Z,17.20
